Time;durP1;ratioP1;P1;durP2;ratioP2;P2;SDS_P1;SDS_P2;PMS_P1;PMS_P2;Temp;Humidity;BMP_temperature;BMP_pressure;BME280_temperature;BME280_humidity;BME280_pressure;Samples;Min_cycle;Max_cycle;Signal;HPM_P1;HPM_P2
2021/03/18 00:00:45;;;;;;;6.72;5.22;;;7.50;54.30;;;;;;5073110;28;20021;-72
2021/03/18 00:03:14;;;;;;;9.60;5.50;;;7.50;54.40;;;;;;5073254;28;20496;-73
2021/03/18 00:05:41;;;;;;;9.32;6.07;;;7.40;54.40;;;;;;5073055;28;20113;-73
2021/03/18 00:08:06;;;;;;;11.18;5.45;;;7.40;54.50;;;;;;5073149;28;20035;-72
2021/03/18 00:10:32;;;;;;;7.45;5.35;;;7.30;54.70;;;;;;5073128;28;20024;-72
2021/03/18 00:12:58;;;;;;;9.18;5.80;;;7.30;54.90;;;;;;5072921;28;20121;-73
2021/03/18 00:15:24;;;;;;;9.73;5.90;;;7.20;55.10;;;;;;5073072;28;20035;-73
2021/03/18 00:17:50;;;;;;;8.88;5.80;;;7.20;55.20;;;;;;5073080;28;20029;-72
2021/03/18 00:20:19;;;;;;;10.02;6.63;;;7.10;55.30;;;;;;5075788;28;20021;-72
2021/03/18 00:22:45;;;;;;;10.68;6.32;;;7.00;55.40;;;;;;5077103;28;20488;-72
2021/03/18 00:25:13;;;;;;;8.40;6.20;;;7.00;55.60;;;;;;5075928;28;20024;-72
2021/03/18 00:27:44;;;;;;;9.25;6.40;;;7.00;55.60;;;;;;5076960;28;20497;-72
2021/03/18 00:30:12;;;;;;;7.15;5.53;;;6.90;55.50;;;;;;5076974;28;20027;-72
2021/03/18 00:32:39;;;;;;;11.45;6.32;;;6.90;55.40;;;;;;5076897;28;20024;-72
2021/03/18 00:35:07;;;;;;;9.00;6.47;;;6.80;55.50;;;;;;5076825;28;20021;-72
2021/03/18 00:37:34;;;;;;;10.13;7.05;;;6.80;55.60;;;;;;5076783;28;20477;-73
2021/03/18 00:40:00;;;;;;;8.02;6.30;;;6.70;55.50;;;;;;5076749;28;20385;-72
2021/03/18 00:42:26;;;;;;;9.63;6.57;;;6.70;55.70;;;;;;5076709;28;20016;-72
2021/03/18 00:44:52;;;;;;;9.98;6.60;;;6.70;55.90;;;;;;5076680;28;20020;-72
2021/03/18 00:47:19;;;;;;;11.25;6.50;;;6.70;56.10;;;;;;5076634;28;20043;-71
2021/03/18 00:49:44;;;;;;;9.35;6.18;;;6.60;56.20;;;;;;5076518;28;20536;-72
2021/03/18 00:52:12;;;;;;;9.75;6.32;;;6.60;56.20;;;;;;5076428;28;20060;-72
2021/03/18 00:54:38;;;;;;;11.18;6.18;;;6.60;56.30;;;;;;5075238;28;20028;-72
2021/03/18 00:57:04;;;;;;;10.43;6.15;;;6.60;56.30;;;;;;5076066;28;20028;-72
2021/03/18 00:59:30;;;;;;;9.77;6.60;;;6.60;56.40;;;;;;5077985;28;20017;-72
2021/03/18 01:01:56;;;;;;;8.77;6.13;;;6.60;56.40;;;;;;5076551;28;20162;-72
2021/03/18 01:04:22;;;;;;;9.07;6.95;;;6.70;56.60;;;;;;5074963;28;20040;-73
2021/03/18 01:06:47;;;;;;;10.45;6.47;;;6.70;56.70;;;;;;5076240;28;20099;-72
2021/03/18 01:09:13;;;;;;;11.40;7.15;;;6.70;57.40;;;;;;5076190;28;20103;-72
2021/03/18 01:11:40;;;;;;;9.82;6.25;;;6.70;57.40;;;;;;5076033;28;20024;-72
2021/03/18 01:14:11;;;;;;;9.98;7.18;;;6.70;56.90;;;;;;5076196;28;20028;-72
2021/03/18 01:16:47;;;;;;;9.48;7.13;;;6.70;57.10;;;;;;5076220;28;20020;-72
2021/03/18 01:19:13;;;;;;;10.40;7.28;;;6.70;57.20;;;;;;5075865;28;20013;-72
2021/03/18 01:21:42;;;;;;;8.60;6.07;;;6.70;57.20;;;;;;5076130;28;20032;-73
2021/03/18 01:24:10;;;;;;;11.57;6.78;;;6.70;57.30;;;;;;5075831;28;20025;-73
2021/03/18 01:26:37;;;;;;;12.73;6.45;;;6.80;57.40;;;;;;5076001;28;20020;-72
2021/03/18 01:29:04;;;;;;;10.48;7.13;;;6.70;57.40;;;;;;5075833;28;20020;-72
2021/03/18 01:31:30;;;;;;;8.50;6.55;;;6.70;57.60;;;;;;5074664;28;20081;-73
2021/03/18 01:33:56;;;;;;;10.10;6.97;;;6.70;57.80;;;;;;5075843;28;20095;-71
2021/03/18 01:36:23;;;;;;;9.43;6.30;;;6.70;57.80;;;;;;5075793;28;20093;-73
2021/03/18 01:38:49;;;;;;;12.65;6.95;;;6.70;57.80;;;;;;5075671;28;20105;-72
2021/03/18 01:41:16;;;;;;;13.13;8.13;;;6.70;57.80;;;;;;5075425;28;20474;-72
2021/03/18 01:43:43;;;;;;;11.40;7.20;;;6.70;57.70;;;;;;5075686;28;20032;-73
2021/03/18 01:46:10;;;;;;;9.52;6.82;;;6.70;57.70;;;;;;5075529;28;20028;-73
2021/03/18 01:48:35;;;;;;;9.50;6.55;;;6.70;57.70;;;;;;5075376;28;20433;-72
2021/03/18 01:51:02;;;;;;;9.73;6.53;;;6.70;57.60;;;;;;5075368;28;20032;-72
2021/03/18 01:53:28;;;;;;;8.43;6.13;;;6.70;57.50;;;;;;5075441;28;20021;-72
2021/03/18 01:55:56;;;;;;;8.82;6.75;;;6.70;57.30;;;;;;5075405;28;20107;-71
2021/03/18 01:58:22;;;;;;;9.13;6.78;;;6.80;57.30;;;;;;5075577;28;20024;-72
2021/03/18 02:00:51;;;;;;;10.60;6.85;;;6.80;57.20;;;;;;5075360;28;20037;-72
2021/03/18 02:03:17;;;;;;;11.48;7.38;;;6.80;57.20;;;;;;5075233;28;20021;-72
2021/03/18 02:05:43;;;;;;;9.73;7.13;;;6.80;57.30;;;;;;5075242;28;20032;-72
2021/03/18 02:08:09;;;;;;;10.85;7.28;;;6.80;57.20;;;;;;5075150;28;20032;-73
2021/03/18 02:10:37;;;;;;;8.20;6.45;;;6.80;57.10;;;;;;5073693;28;20033;-72
2021/03/18 02:13:05;;;;;;;10.48;6.80;;;6.80;57.10;;;;;;5074894;28;20024;-72
2021/03/18 02:15:48;;;;;;;11.73;6.60;;;6.80;57.10;;;;;;5073623;28;20487;-73
2021/03/18 02:18:38;;;;;;;10.43;7.63;;;6.80;57.10;;;;;;5074689;28;20433;-72
2021/03/18 02:21:38;;;;;;;11.60;7.60;;;6.80;57.00;;;;;;5074762;28;20021;-72
2021/03/18 02:24:12;;;;;;;10.07;7.00;;;6.80;57.00;;;;;;5074570;28;20029;-71
2021/03/18 02:26:38;;;;;;;;;;;6.80;57.00;;;;;;5075067;28;20385;-73
2021/03/18 02:29:12;;;;;;;11.82;7.13;;;6.80;56.70;;;;;;5074619;28;19911;-72
2021/03/18 02:32:14;;;;;;;8.82;7.32;;;6.80;57.00;;;;;;5074574;28;20024;-72
2021/03/18 02:34:52;;;;;;;11.07;7.40;;;6.80;57.20;;;;;;5074660;28;20020;-73
2021/03/18 02:37:21;;;;;;;11.48;6.95;;;6.80;57.40;;;;;;5074655;28;20386;-72
2021/03/18 02:39:55;;;;;;;9.70;7.10;;;6.80;57.60;;;;;;5073226;28;20151;-73
2021/03/18 02:42:23;;;;;;;11.68;7.40;;;6.80;57.70;;;;;;5074061;28;20020;-73
2021/03/18 02:44:54;;;;;;;10.63;7.22;;;6.80;57.70;;;;;;5074372;28;20053;-73
2021/03/18 02:47:23;;;;;;;11.95;7.40;;;6.70;57.80;;;;;;5074365;28;20031;-73
2021/03/18 02:49:51;;;;;;;10.73;7.53;;;6.70;57.90;;;;;;5072880;28;20049;-72
2021/03/18 02:52:22;;;;;;;9.95;7.13;;;6.80;58.00;;;;;;5074077;28;20092;-73
2021/03/18 02:54:53;;;;;;;11.02;7.35;;;6.70;58.10;;;;;;5072983;28;20048;-73
2021/03/18 02:57:21;;;;;;;13.50;7.75;;;6.70;58.20;;;;;;5074164;28;20019;-72
2021/03/18 02:59:49;;;;;;;9.38;6.65;;;6.70;58.20;;;;;;5073889;28;20017;-71
2021/03/18 03:02:26;;;;;;;12.40;6.70;;;6.70;58.20;;;;;;5074059;28;20028;-72
2021/03/18 03:04:53;;;;;;;13.05;7.72;;;6.70;58.30;;;;;;5074005;28;20409;-73
2021/03/18 03:07:22;;;;;;;31.33;16.17;;;6.80;58.20;;;;;;5073920;28;20412;-73
2021/03/18 03:09:49;;;;;;;18.77;11.05;;;6.80;58.20;;;;;;5073764;28;20025;-72
2021/03/18 03:12:16;;;;;;;28.20;14.45;;;6.80;58.20;;;;;;5072419;28;20027;-72
2021/03/18 03:14:45;;;;;;;14.60;8.63;;;6.80;58.30;;;;;;5072439;28;20028;-74
2021/03/18 03:17:16;;;;;;;14.02;9.48;;;6.80;58.40;;;;;;5073573;28;20075;-72
2021/03/18 03:19:43;;;;;;;13.43;8.85;;;6.80;58.50;;;;;;5073746;28;20039;-72
2021/03/18 03:22:09;;;;;;;10.60;7.68;;;6.80;58.60;;;;;;5073656;28;20028;-72
2021/03/18 03:24:36;;;;;;;9.85;7.07;;;6.70;58.70;;;;;;5073620;28;20029;-72
2021/03/18 03:27:05;;;;;;;12.52;8.07;;;6.70;58.90;;;;;;5073581;28;20479;-72
2021/03/18 03:29:31;;;;;;;10.30;6.72;;;6.70;58.90;;;;;;5073538;28;20036;-72
2021/03/18 03:31:59;;;;;;;11.02;8.32;;;6.70;59.00;;;;;;5073428;28;20027;-72
2021/03/18 03:34:25;;;;;;;12.23;8.35;;;6.70;59.20;;;;;;5072324;28;20024;-73
2021/03/18 03:36:51;;;;;;;11.40;8.02;;;6.70;59.30;;;;;;5072116;28;20028;-72
2021/03/18 03:39:17;;;;;;;10.80;7.65;;;6.70;59.30;;;;;;5073424;28;20049;-72
2021/03/18 03:41:44;;;;;;;14.88;8.82;;;6.60;59.20;;;;;;5072127;28;20028;-72
2021/03/18 03:44:10;;;;;;;17.77;9.73;;;6.60;59.20;;;;;;5072100;28;20024;-73
2021/03/18 03:46:36;;;;;;;14.60;10.32;;;6.60;59.20;;;;;;5073253;28;20362;-71
2021/03/18 03:49:03;;;;;;;15.32;10.23;;;6.50;59.30;;;;;;5071844;28;20106;-73
2021/03/18 03:51:44;;;;;;;15.88;9.95;;;6.40;59.50;;;;;;5071886;28;20107;-73
2021/03/18 03:54:11;;;;;;;13.77;9.63;;;6.30;59.70;;;;;;5072681;28;20023;-73
2021/03/18 03:56:46;;;;;;;11.98;9.10;;;6.30;59.80;;;;;;5073251;28;20020;-72
2021/03/18 03:59:20;;;;;;;12.23;8.82;;;6.20;60.00;;;;;;5073153;28;20377;-72
2021/03/18 04:01:57;;;;;;;14.52;9.20;;;6.20;60.00;;;;;;5073146;28;20024;-71
2021/03/18 04:04:26;;;;;;;13.02;9.70;;;6.10;60.10;;;;;;5073186;28;20545;-71
2021/03/18 04:06:56;;;;;;;15.60;9.93;;;6.10;60.40;;;;;;5073111;28;20077;-72
2021/03/18 04:09:23;;;;;;;15.88;9.57;;;6.00;60.70;;;;;;5072962;28;20112;-72
2021/03/18 04:11:50;;;;;;;12.88;9.07;;;6.00;60.80;;;;;;5073038;28;20428;-72
2021/03/18 04:14:20;;;;;;;15.43;9.45;;;6.00;60.90;;;;;;5072841;28;20386;-71
2021/03/18 04:16:47;;;;;;;13.75;9.57;;;6.00;60.90;;;;;;5072964;28;20122;-72
2021/03/18 04:19:19;;;;;;;13.32;9.25;;;6.00;60.90;;;;;;5071642;28;20031;-72
2021/03/18 04:21:48;;;;;;;17.35;10.13;;;6.00;60.90;;;;;;5072777;28;20028;-72
2021/03/18 04:24:15;;;;;;;15.70;10.23;;;6.00;61.10;;;;;;5071557;28;20036;-73
2021/03/18 04:26:42;;;;;;;13.65;10.07;;;6.00;61.40;;;;;;5072826;28;20386;-72
2021/03/18 04:29:09;;;;;;;15.68;10.40;;;6.00;61.40;;;;;;5072767;28;20025;-72
2021/03/18 04:31:40;;;;;;;16.75;9.93;;;6.00;61.30;;;;;;5072849;28;20021;-71
2021/03/18 04:34:07;;;;;;;15.30;10.63;;;6.00;61.10;;;;;;5072776;28;20040;-71
2021/03/18 04:36:35;;;;;;;17.30;10.82;;;6.10;61.10;;;;;;5071348;28;20029;-73
2021/03/18 04:39:02;;;;;;;16.02;10.38;;;6.00;61.00;;;;;;5072618;28;20025;-72
2021/03/18 04:41:28;;;;;;;18.77;11.38;;;6.00;60.90;;;;;;5072668;28;20104;-73
2021/03/18 04:43:56;;;;;;;16.08;10.90;;;6.00;61.10;;;;;;5072515;28;20021;-72
2021/03/18 04:46:23;;;;;;;15.93;10.73;;;6.00;61.30;;;;;;5072557;28;20032;-72
2021/03/18 04:48:55;;;;;;;19.20;12.02;;;6.00;61.50;;;;;;5072408;28;20067;-72
2021/03/18 04:51:21;;;;;;;19.08;12.38;;;5.90;61.50;;;;;;5072443;28;20457;-72
2021/03/18 04:53:47;;;;;;;17.90;12.05;;;5.90;61.60;;;;;;5071296;28;20044;-72
2021/03/18 04:56:14;;;;;;;19.30;12.30;;;5.90;61.70;;;;;;5071097;28;20540;-71
2021/03/18 04:58:42;;;;;;;20.25;11.98;;;6.00;61.80;;;;;;5071047;28;20078;-73
2021/03/18 05:01:09;;;;;;;17.70;11.70;;;6.00;62.60;;;;;;5072443;28;20063;-73
2021/03/18 05:03:36;;;;;;;18.63;11.38;;;6.00;61.70;;;;;;5072389;28;20032;-72
2021/03/18 05:06:04;;;;;;;17.08;11.73;;;6.00;61.60;;;;;;5075587;28;20063;-72
2021/03/18 05:08:32;;;;;;;17.13;11.00;;;6.00;61.50;;;;;;5076156;28;20027;-72
2021/03/18 05:10:58;;;;;;;15.45;10.68;;;6.00;61.50;;;;;;5074644;28;20082;-73
2021/03/18 05:13:25;;;;;;;21.15;11.30;;;6.00;61.40;;;;;;5075737;28;20105;-73
2021/03/18 05:15:52;;;;;;;18.23;12.13;;;6.00;61.30;;;;;;5075930;28;20037;-72
2021/03/18 05:18:19;;;;;;;21.58;12.65;;;6.10;61.30;;;;;;5075867;28;20043;-72
2021/03/18 05:20:47;;;;;;;18.52;12.13;;;6.00;61.30;;;;;;5075818;28;20104;-72
2021/03/18 05:23:14;;;;;;;16.67;11.73;;;6.00;61.20;;;;;;5075805;28;20028;-73
2021/03/18 05:25:40;;;;;;;17.08;11.80;;;6.10;61.30;;;;;;5075726;28;20056;-72
2021/03/18 05:28:07;;;;;;;22.25;13.07;;;6.10;61.30;;;;;;5075757;28;20055;-72
2021/03/18 05:30:33;;;;;;;19.85;12.55;;;6.10;61.30;;;;;;5074372;28;20029;-72
2021/03/18 05:33:00;;;;;;;19.50;11.93;;;6.10;61.40;;;;;;5075723;28;20050;-72
2021/03/18 05:35:27;;;;;;;22.23;12.13;;;6.10;61.40;;;;;;5075545;28;20059;-72
2021/03/18 05:37:53;;;;;;;20.45;13.55;;;6.20;61.50;;;;;;5075628;28;20013;-73
2021/03/18 05:40:20;;;;;;;20.50;13.23;;;6.20;61.50;;;;;;5074071;28;20488;-72
2021/03/18 05:42:47;;;;;;;19.13;12.43;;;6.20;61.50;;;;;;5075409;28;20046;-73
2021/03/18 05:45:15;;;;;;;22.40;13.57;;;6.30;61.50;;;;;;5075467;28;20020;-72
2021/03/18 05:47:41;;;;;;;20.73;12.77;;;6.30;62.20;;;;;;5074209;28;20025;-71
2021/03/18 05:50:11;;;;;;;20.50;11.88;;;6.30;61.30;;;;;;5075093;28;20464;-73
2021/03/18 05:52:38;;;;;;;18.38;11.73;;;6.30;61.20;;;;;;5075212;28;20021;-72
2021/03/18 05:55:05;;;;;;;20.95;12.90;;;6.40;61.20;;;;;;5075481;28;20025;-73
2021/03/18 05:57:33;;;;;;;20.42;13.65;;;6.40;61.20;;;;;;5073935;28;20023;-71
2021/03/18 05:59:59;;;;;;;24.17;13.80;;;6.50;61.10;;;;;;5073930;28;20496;-72
2021/03/18 06:02:26;;;;;;;18.40;11.85;;;6.50;61.00;;;;;;5075107;28;20025;-73
2021/03/18 06:04:51;;;;;;;20.48;13.13;;;6.50;60.90;;;;;;5075068;28;20370;-72
2021/03/18 06:07:17;;;;;;;20.20;13.82;;;6.60;60.90;;;;;;5073766;28;20031;-72
2021/03/18 06:09:43;;;;;;;21.73;14.05;;;6.60;60.70;;;;;;5075141;28;20020;-73
2021/03/18 06:12:09;;;;;;;26.83;14.93;;;6.60;60.60;;;;;;5074676;28;20052;-73
2021/03/18 06:14:35;;;;;;;19.17;13.80;;;6.60;60.60;;;;;;5074937;28;20474;-73
2021/03/18 06:17:01;;;;;;;23.85;13.60;;;6.70;60.60;;;;;;5074247;28;20098;-71
2021/03/18 06:19:27;;;;;;;21.02;13.85;;;6.70;60.50;;;;;;5074761;28;20363;-72
2021/03/18 06:21:56;;;;;;;19.52;13.35;;;6.70;60.60;;;;;;5074744;28;20035;-73
2021/03/18 06:24:23;;;;;;;21.02;14.40;;;6.70;60.60;;;;;;5074681;28;20024;-71
2021/03/18 06:26:49;;;;;;;21.10;13.25;;;6.80;60.70;;;;;;5073421;28;20028;-72
2021/03/18 06:29:35;;;;;;;20.73;13.60;;;6.80;60.60;;;;;;5073369;28;20478;-72
2021/03/18 06:32:21;;;;;;;20.08;13.10;;;6.80;60.50;;;;;;5073211;28;20056;-73
2021/03/18 06:34:55;;;;;;;28.13;14.18;;;6.90;60.30;;;;;;5074332;28;20042;-73
2021/03/18 06:37:28;;;;;;;21.77;13.50;;;6.90;60.30;;;;;;5073226;28;20389;-72
2021/03/18 06:39:54;;;;;;;26.02;14.10;;;6.90;60.00;;;;;;5074355;28;20106;-72
2021/03/18 06:42:20;;;;;;;22.13;13.57;;;7.00;60.00;;;;;;5074444;28;20024;-72
2021/03/18 06:44:46;;;;;;;20.65;12.88;;;7.00;59.90;;;;;;5074538;28;20024;-72
2021/03/18 06:47:13;;;;;;;22.15;13.13;;;7.00;59.80;;;;;;5074329;28;20497;-73
2021/03/18 06:49:39;;;;;;;22.73;13.57;;;7.00;59.70;;;;;;5074199;28;20063;-72
2021/03/18 06:52:13;;;;;;;19.88;12.95;;;7.10;59.70;;;;;;5072797;28;20482;-71
2021/03/18 06:54:43;;;;;;;21.65;12.95;;;7.10;59.60;;;;;;5074136;28;20021;-73
2021/03/18 06:57:11;;;;;;;23.33;12.95;;;7.20;59.50;;;;;;5073907;28;20029;-72
2021/03/18 06:59:41;;;;;;;20.63;12.50;;;7.20;59.30;;;;;;5073933;28;20028;-72
2021/03/18 07:02:19;;;;;;;22.02;11.73;;;7.20;59.30;;;;;;5073923;28;20072;-72
2021/03/18 07:04:56;;;;;;;17.88;10.63;;;7.30;59.20;;;;;;5073863;28;20534;-73
2021/03/18 07:07:25;;;;;;;19.13;10.77;;;7.40;59.00;;;;;;5073857;28;20037;-72
2021/03/18 07:09:55;;;;;;;18.13;11.30;;;7.40;58.70;;;;;;5073746;28;20036;-73
2021/03/18 07:12:30;;;;;;;19.92;11.27;;;7.50;58.40;;;;;;5073738;28;20048;-72
2021/03/18 07:14:59;;;;;;;14.90;10.60;;;7.50;58.20;;;;;;5073779;28;20020;-72
2021/03/18 07:17:34;;;;;;;14.52;9.77;;;7.60;58.20;;;;;;5073649;28;20034;-71
2021/03/18 07:20:18;;;;;;;14.10;10.13;;;7.60;58.10;;;;;;5073608;28;20019;-73
2021/03/18 07:22:49;;;;;;;16.40;10.27;;;7.70;58.00;;;;;;5073384;28;20100;-72
2021/03/18 07:25:18;;;;;;;15.85;10.05;;;7.80;57.90;;;;;;5072274;28;20103;-72
2021/03/18 07:27:58;;;;;;;16.08;9.95;;;7.80;57.70;;;;;;5071597;28;20453;-72
2021/03/18 07:30:23;;;;;;;15.38;9.30;;;7.90;57.60;;;;;;5073441;28;20033;-73
2021/03/18 07:32:51;;;;;;;13.88;9.63;;;8.00;57.50;;;;;;5073490;28;20470;-72
2021/03/18 07:35:17;;;;;;;16.77;9.18;;;8.00;57.20;;;;;;5073453;28;20034;-72
2021/03/18 07:37:43;;;;;;;16.05;9.98;;;8.10;56.80;;;;;;5073442;28;20016;-73
2021/03/18 07:40:09;;;;;;;21.10;10.38;;;8.20;56.60;;;;;;5072323;28;20025;-72
2021/03/18 07:42:36;;;;;;;14.15;9.38;;;8.20;56.40;;;;;;5073245;28;20065;-72
2021/03/18 07:45:06;;;;;;;15.95;9.95;;;8.20;56.10;;;;;;5073364;28;20051;-76
2021/03/18 07:47:34;;;;;;;13.13;9.82;;;8.30;55.80;;;;;;5073211;28;20482;-72
2021/03/18 07:50:04;;;;;;;12.85;9.25;;;8.30;55.50;;;;;;5073123;28;20080;-72
2021/03/18 07:52:30;;;;;;;17.52;9.07;;;8.30;55.30;;;;;;5071865;28;20037;-72
2021/03/18 07:54:59;;;;;;;16.00;9.38;;;8.30;54.90;;;;;;5073209;28;20096;-72
2021/03/18 07:57:25;;;;;;;11.77;8.65;;;8.20;55.00;;;;;;5071812;28;20028;-71
2021/03/18 07:59:51;;;;;;;13.60;9.05;;;8.30;55.20;;;;;;5073098;28;20150;-73
2021/03/18 08:02:21;;;;;;;17.55;9.68;;;8.30;55.00;;;;;;5072886;28;20495;-72
2021/03/18 08:04:49;;;;;;;14.75;9.60;;;8.20;55.00;;;;;;5073154;28;20021;-72
2021/03/18 08:07:47;;;;;;;21.20;9.30;;;8.30;55.30;;;;;;5073078;28;20431;-73
2021/03/18 08:10:22;;;;;;;18.92;9.20;;;8.30;55.00;;;;;;5056633;28;20056;-72
2021/03/18 08:12:49;;;;;;;13.30;8.80;;;8.30;54.80;;;;;;5051877;28;20101;-72
2021/03/18 08:15:34;;;;;;;15.60;8.45;;;8.40;55.00;;;;;;5051693;28;20025;-72
2021/03/18 08:18:23;;;;;;;16.42;8.82;;;8.50;54.50;;;;;;5053037;28;20363;-72
2021/03/18 08:20:58;;;;;;;12.23;7.95;;;8.60;53.90;;;;;;5053881;28;20040;-73
2021/03/18 08:23:23;;;;;;;14.93;8.00;;;8.70;53.50;;;;;;5051422;28;20074;-72
2021/03/18 08:26:00;;;;;;;17.85;8.15;;;8.80;53.30;;;;;;5052895;28;20029;-72
2021/03/18 08:28:43;;;;;;;15.13;8.20;;;8.90;53.20;;;;;;5052775;28;20599;-71
2021/03/18 08:31:18;;;;;;;10.10;7.28;;;9.00;52.60;;;;;;5052797;28;20504;-72
2021/03/18 08:33:56;;;;;;;13.75;7.57;;;9.20;51.90;;;;;;5052648;28;20021;-74
2021/03/18 08:36:32;;;;;;;9.95;7.20;;;9.30;51.70;;;;;;5052636;28;20057;-71
2021/03/18 08:39:05;;;;;;;10.73;6.85;;;9.50;50.70;;;;;;5053185;28;20021;-73
2021/03/18 08:41:34;;;;;;;9.40;6.73;;;9.60;50.10;;;;;;5056761;28;20064;-73
2021/03/18 08:44:29;;;;;;;10.48;6.72;;;9.80;49.90;;;;;;5056630;28;20029;-75
2021/03/18 08:47:00;;;;;;;17.50;6.65;;;9.90;49.60;;;;;;5062857;28;20033;-73
2021/03/18 08:49:34;;;;;;;13.20;6.75;;;10.10;49.30;;;;;;5056280;28;20049;-73
2021/03/18 08:52:05;;;;;;;11.60;7.93;;;10.20;48.80;;;;;;5056506;28;20355;-73
2021/03/18 08:54:40;;;;;;;15.23;7.20;;;10.20;48.30;;;;;;5056355;28;20048;-72
2021/03/18 08:57:14;;;;;;;11.45;6.63;;;10.30;48.30;;;;;;5054993;28;20115;-72
2021/03/18 08:59:46;;;;;;;14.23;6.93;;;10.40;48.10;;;;;;5056404;28;20028;-73
2021/03/18 09:02:13;;;;;;;23.42;7.68;;;10.40;48.20;;;;;;5055013;28;20069;-73
2021/03/18 09:04:40;;;;;;;15.02;7.55;;;10.40;47.70;;;;;;5055011;28;20029;-73
2021/03/18 09:07:09;;;;;;;12.68;7.53;;;10.40;47.90;;;;;;5056199;28;20024;-73
2021/03/18 09:09:35;;;;;;;11.40;7.45;;;10.40;47.40;;;;;;5054801;28;20025;-73
2021/03/18 09:12:02;;;;;;;11.88;7.80;;;10.40;47.70;;;;;;5056222;28;20029;-72
2021/03/18 09:14:29;;;;;;;12.35;7.32;;;10.40;48.10;;;;;;5054750;28;20044;-73
2021/03/18 09:17:13;;;;;;;12.50;7.70;;;10.50;48.20;;;;;;5056162;28;20013;-73
2021/03/18 09:19:45;;;;;;;13.70;6.72;;;10.50;47.40;;;;;;5056079;28;20094;-74
2021/03/18 09:22:15;;;;;;;20.27;8.50;;;10.50;47.90;;;;;;5054603;28;20082;-73
2021/03/18 09:24:44;;;;;;;14.18;8.25;;;10.50;47.50;;;;;;5055987;28;20474;-73
2021/03/18 09:27:14;;;;;;;12.73;6.85;;;10.60;47.40;;;;;;5054614;28;20029;-72
2021/03/18 09:29:42;;;;;;;10.25;6.72;;;10.50;47.00;;;;;;5055800;28;20490;-72
2021/03/18 09:32:11;;;;;;;10.63;6.07;;;10.50;46.90;;;;;;5054459;28;20029;-74
2021/03/18 09:34:45;;;;;;;10.43;7.22;;;10.50;47.30;;;;;;5054383;28;20036;-73
2021/03/18 09:37:12;;;;;;;11.25;6.88;;;10.40;46.80;;;;;;5055703;28;20028;-72
2021/03/18 09:39:47;;;;;;;9.13;6.03;;;10.40;46.70;;;;;;5055468;28;20017;-73
2021/03/18 09:42:15;;;;;;;8.43;5.93;;;10.40;46.30;;;;;;5054296;28;20413;-74
2021/03/18 09:44:42;;;;;;;12.00;6.15;;;10.40;46.40;;;;;;5054098;28;20394;-72
2021/03/18 09:47:09;;;;;;;10.45;5.57;;;10.50;45.60;;;;;;5054296;28;20021;-72
2021/03/18 09:49:39;;;;;;;9.60;5.95;;;10.50;45.80;;;;;;5053804;28;20077;-72
2021/03/18 09:52:06;;;;;;;7.13;5.25;;;10.50;45.80;;;;;;5055042;28;20653;-74
2021/03/18 09:54:33;;;;;;;6.25;4.93;;;10.60;45.70;;;;;;5055343;28;20029;-72
2021/03/18 09:57:07;;;;;;;6.57;4.85;;;10.60;45.40;;;;;;5055260;28;20492;-72
2021/03/18 09:59:33;;;;;;;9.77;6.15;;;10.60;45.70;;;;;;5055402;28;20013;-72
2021/03/18 10:01:59;;;;;;;16.90;5.57;;;10.70;45.50;;;;;;5053800;28;20375;-72
2021/03/18 10:04:26;;;;;;;6.93;4.13;;;10.70;45.50;;;;;;5055139;28;20036;-73
2021/03/18 10:06:57;;;;;;;7.30;4.10;;;10.80;45.20;;;;;;5054923;28;20075;-74
2021/03/18 10:09:39;;;;;;;4.68;3.35;;;10.90;44.90;;;;;;5053703;28;20025;-73
2021/03/18 10:12:10;;;;;;;5.20;3.10;;;11.10;44.30;;;;;;5054888;28;20025;-73
2021/03/18 10:14:36;;;;;;;5.00;3.30;;;11.20;43.90;;;;;;5054855;28;20036;-74
2021/03/18 10:17:14;;;;;;;5.32;3.70;;;11.40;43.50;;;;;;5054799;28;20029;-74
2021/03/18 10:19:49;;;;;;;9.40;4.25;;;11.50;43.10;;;;;;5053479;28;20449;-72
2021/03/18 10:22:15;;;;;;;4.78;3.63;;;11.60;42.90;;;;;;5054560;28;20035;-73
2021/03/18 10:24:41;;;;;;;5.18;3.50;;;11.60;43.30;;;;;;5054621;28;20029;-74
2021/03/18 10:27:15;;;;;;;6.88;3.10;;;11.70;43.40;;;;;;5053406;28;20386;-74
2021/03/18 10:29:43;;;;;;;5.00;3.20;;;11.80;43.10;;;;;;5054661;28;20100;-73
2021/03/18 10:32:11;;;;;;;6.07;3.60;;;11.90;43.50;;;;;;5053172;28;20041;-73
2021/03/18 10:34:38;;;;;;;4.07;2.90;;;12.10;43.00;;;;;;5054412;28;20027;-73
2021/03/18 10:37:31;;;;;;;12.65;3.60;;;12.20;42.80;;;;;;5054324;28;20459;-73
2021/03/18 10:40:13;;;;;;;11.32;3.63;;;12.30;41.80;;;;;;5053063;28;20045;-73
2021/03/18 10:42:39;;;;;;;5.75;3.55;;;12.50;41.30;;;;;;5054412;28;20032;-74
2021/03/18 10:45:27;;;;;;;4.38;2.92;;;12.60;41.10;;;;;;5054440;28;20025;-73
2021/03/18 10:48:05;;;;;;;14.27;3.88;;;12.70;41.00;;;;;;5054302;28;20403;-73
2021/03/18 10:50:36;;;;;;;5.93;3.60;;;12.80;40.90;;;;;;5054081;28;20052;-73
2021/03/18 10:53:05;;;;;;;8.13;3.30;;;12.80;39.80;;;;;;5054340;28;20029;-73
2021/03/18 10:55:38;;;;;;;5.65;2.75;;;12.80;38.90;;;;;;5054016;28;20449;-74
2021/03/18 10:58:16;;;;;;;14.23;2.92;;;12.80;38.20;;;;;;5054121;28;20013;-73
2021/03/18 11:00:43;;;;;;;6.65;3.15;;;12.70;38.90;;;;;;5052940;28;20458;-74
2021/03/18 11:03:15;;;;;;;4.78;3.20;;;12.60;38.10;;;;;;5053840;28;20463;-73
2021/03/18 11:05:49;;;;;;;5.25;2.65;;;12.30;37.40;;;;;;5053733;28;20040;-74
2021/03/18 11:08:17;;;;;;;3.97;2.53;;;12.10;37.90;;;;;;5054041;28;20115;-74
2021/03/18 11:10:49;;;;;;;4.20;2.50;;;11.90;37.10;;;;;;5053778;28;20486;-72
2021/03/18 11:13:23;;;;;;;3.97;2.20;;;11.70;36.90;;;;;;5052624;28;20112;-72
2021/03/18 11:15:58;;;;;;;5.25;2.13;;;11.50;37.00;;;;;;5054071;28;20032;-72
2021/03/18 11:18:39;;;;;;;3.20;2.00;;;11.30;37.10;;;;;;5052532;28;20070;-72
2021/03/18 11:21:25;;;;;;;6.45;2.45;;;11.20;38.10;;;;;;5053624;28;20025;-73
2021/03/18 11:23:55;;;;;;;4.40;2.55;;;11.20;37.50;;;;;;5053728;28;20021;-73
2021/03/18 11:26:25;;;;;;;3.88;2.20;;;11.40;37.40;;;;;;5052374;28;20039;-74
2021/03/18 11:28:56;;;;;;;4.20;2.53;;;11.60;38.10;;;;;;5052397;28;20048;-74
2021/03/18 11:31:25;;;;;;;3.95;2.85;;;11.80;37.90;;;;;;5053397;28;20102;-73
2021/03/18 11:33:50;;;;;;;3.42;2.55;;;11.90;37.90;;;;;;5052164;28;20398;-73
2021/03/18 11:36:17;;;;;;;6.38;2.72;;;12.10;38.30;;;;;;5053472;28;20036;-74
2021/03/18 11:38:43;;;;;;;3.83;2.55;;;12.10;38.30;;;;;;5052202;28;20049;-73
2021/03/18 11:41:09;;;;;;;8.13;2.50;;;12.10;38.80;;;;;;5053487;28;20025;-73
2021/03/18 11:43:36;;;;;;;7.55;2.75;;;12.10;38.30;;;;;;5053367;28;20143;-73
2021/03/18 11:46:02;;;;;;;5.20;2.20;;;12.00;38.30;;;;;;5052010;28;20029;-74
2021/03/18 11:48:28;;;;;;;2.35;1.95;;;11.90;39.20;;;;;;5053267;28;20028;-74
2021/03/18 11:50:54;;;;;;;2.17;1.60;;;11.80;38.20;;;;;;5053007;28;20049;-74
2021/03/18 11:53:21;;;;;;;1.83;1.40;;;11.60;37.50;;;;;;5051958;28;20028;-72
2021/03/18 11:55:47;;;;;;;6.10;1.60;;;11.50;36.90;;;;;;5053086;28;20070;-73
2021/03/18 11:58:13;;;;;;;1.88;1.30;;;11.40;37.90;;;;;;5053149;28;20017;-73
2021/03/18 12:00:39;;;;;;;3.35;1.38;;;11.30;38.30;;;;;;5053172;28;20020;-73
2021/03/18 12:03:08;;;;;;;2.53;1.77;;;11.10;37.40;;;;;;5051712;28;20017;-72
2021/03/18 12:05:36;;;;;;;3.30;2.05;;;11.00;37.20;;;;;;5053059;28;20498;-73
2021/03/18 12:08:03;;;;;;;4.97;2.35;;;10.90;37.50;;;;;;5053243;28;20104;-73
2021/03/18 12:10:29;;;;;;;3.10;2.33;;;10.80;37.50;;;;;;5052982;28;20023;-73
2021/03/18 12:12:55;;;;;;;5.63;3.38;;;10.70;37.10;;;;;;5051602;28;20025;-72
2021/03/18 12:15:21;;;;;;;4.97;2.95;;;10.70;36.90;;;;;;5052607;28;20024;-74
2021/03/18 12:17:47;;;;;;;5.75;3.33;;;10.60;36.30;;;;;;5052992;28;20474;-73
2021/03/18 12:20:19;;;;;;;4.68;3.05;;;10.60;36.70;;;;;;5053292;28;20019;-73
2021/03/18 12:22:46;;;;;;;5.97;3.25;;;10.60;37.00;;;;;;5072770;28;20025;-73
2021/03/18 12:25:14;;;;;;;6.68;2.90;;;10.70;36.60;;;;;;5064181;28;20025;-73
2021/03/18 12:27:40;;;;;;;4.93;2.90;;;10.70;36.50;;;;;;5063790;28;20102;-73
2021/03/18 12:30:10;;;;;;;7.68;2.47;;;10.80;37.00;;;;;;5056335;28;20037;-73
2021/03/18 12:32:36;;;;;;;3.90;2.65;;;10.90;37.30;;;;;;5057080;28;20063;-73
2021/03/18 12:35:03;;;;;;;8.35;2.78;;;11.00;36.30;;;;;;5064894;28;20428;-73
2021/03/18 12:37:28;;;;;;;6.30;3.08;;;11.10;35.90;;;;;;5072922;28;20020;-72
2021/03/18 12:39:54;;;;;;;4.35;2.22;;;11.30;36.00;;;;;;5052508;28;20075;-73
2021/03/18 12:42:20;;;;;;;3.70;2.55;;;11.40;35.40;;;;;;5052791;28;20096;-75
2021/03/18 12:44:46;;;;;;;5.07;2.70;;;11.50;35.50;;;;;;5052896;28;20025;-73
2021/03/18 12:47:12;;;;;;;4.38;2.50;;;11.60;35.30;;;;;;5056615;28;20141;-74
2021/03/18 12:49:38;;;;;;;3.30;2.42;;;11.70;35.60;;;;;;5064546;28;20041;-74
2021/03/18 12:52:05;;;;;;;5.65;2.40;;;11.70;35.40;;;;;;5072792;28;20025;-72
2021/03/18 12:54:31;;;;;;;3.72;2.65;;;11.70;35.10;;;;;;5072025;28;20021;-73
2021/03/18 12:56:58;;;;;;;8.30;2.38;;;11.80;36.10;;;;;;5072526;28;20025;-72